Terminal Aerodrome Forecast
Issued by NWS

Current Version | Previous Version | Text Only | Print | Product List | Glossary On
Versions: 1 2 3 4 5 6 7 8 9 10 11 12 13 14 15 16 17 18 19 20 21 22 23 24
000
FTUS41 KPHI 011127
TAFPNE
TAF
KPNE 011127Z 0112/0212 05010KT 6SM -DZ BR OVC006
     FM011400 06010KT 3SM -DZ BR OVC004
     FM011900 06008KT 3SM -RA BR OVC007
     FM020000 06005KT 2SM -DZ BR OVC004
     FM020600 06004KT 1SM -RADZ BR OVC003=

USA.gov is the U.S. government's official web portal to all federal, state and local government web resources and services.